sensor_id;sensor_type;location;lat;lon;timestamp;pressure;altitude;pressure_sealevel;temperature;humidity
38880;BME280;25887;30.194;-97.880;2024-01-27T00:00:09;98420.06;;;16.33;64.40
38880;BME280;25887;30.194;-97.880;2024-01-27T00:02:36;98408.84;;;16.32;64.25
38880;BME280;25887;30.194;-97.880;2024-01-27T00:05:03;98417.53;;;16.31;64.32
38880;BME280;25887;30.194;-97.880;2024-01-27T00:07:29;98422.75;;;16.30;64.31
38880;BME280;25887;30.194;-97.880;2024-01-27T00:09:56;98433.06;;;16.31;64.17
38880;BME280;25887;30.194;-97.880;2024-01-27T00:12:24;98445.16;;;16.32;64.42
38880;BME280;25887;30.194;-97.880;2024-01-27T00:14:59;98445.09;;;16.34;64.37
38880;BME280;25887;30.194;-97.880;2024-01-27T00:17:38;98446.00;;;16.33;64.30
38880;BME280;25887;30.194;-97.880;2024-01-27T00:20:06;98457.25;;;16.32;64.21
38880;BME280;25887;30.194;-97.880;2024-01-27T00:22:32;98450.41;;;16.29;64.22
38880;BME280;25887;30.194;-97.880;2024-01-27T00:24:58;98459.03;;;16.30;64.34
38880;BME280;25887;30.194;-97.880;2024-01-27T00:27:25;98459.94;;;16.29;64.22
38880;BME280;25887;30.194;-97.880;2024-01-27T00:29:52;98459.09;;;16.28;64.25
38880;BME280;25887;30.194;-97.880;2024-01-27T00:32:21;98467.75;;;16.27;64.25
38880;BME280;25887;30.194;-97.880;2024-01-27T00:34:53;98478.13;;;16.27;64.17
38880;BME280;25887;30.194;-97.880;2024-01-27T00:37:22;98476.38;;;16.26;64.19
38880;BME280;25887;30.194;-97.880;2024-01-27T00:39:54;98475.53;;;16.26;64.32
38880;BME280;25887;30.194;-97.880;2024-01-27T00:42:21;98485.91;;;16.26;64.03
38880;BME280;25887;30.194;-97.880;2024-01-27T00:44:50;98489.38;;;16.25;64.18
38880;BME280;25887;30.194;-97.880;2024-01-27T00:47:19;98497.25;;;16.22;64.19
38880;BME280;25887;30.194;-97.880;2024-01-27T00:49:47;98502.47;;;16.20;64.34
38880;BME280;25887;30.194;-97.880;2024-01-27T00:52:13;98509.38;;;16.20;64.30
38880;BME280;25887;30.194;-97.880;2024-01-27T00:54:53;98507.69;;;16.19;64.30
38880;BME280;25887;30.194;-97.880;2024-01-27T00:57:23;98511.25;;;16.13;64.23
38880;BME280;25887;30.194;-97.880;2024-01-27T00:59:49;98507.84;;;16.11;64.34
38880;BME280;25887;30.194;-97.880;2024-01-27T01:02:18;98503.53;;;16.08;64.33
38880;BME280;25887;30.194;-97.880;2024-01-27T01:04:47;98513.91;;;16.08;64.18
38880;BME280;25887;30.194;-97.880;2024-01-27T01:07:14;98514.81;;;16.07;64.38
38880;BME280;25887;30.194;-97.880;2024-01-27T01:09:46;98533.78;;;16.08;64.44
38880;BME280;25887;30.194;-97.880;2024-01-27T01:12:12;98551.13;;;16.06;64.55
38880;BME280;25887;30.194;-97.880;2024-01-27T01:14:41;98554.56;;;16.06;64.43
38880;BME280;25887;30.194;-97.880;2024-01-27T01:17:09;98552.84;;;16.05;64.40
38880;BME280;25887;30.194;-97.880;2024-01-27T01:19:37;98555.44;;;16.05;64.38
38880;BME280;25887;30.194;-97.880;2024-01-27T01:22:06;98564.13;;;16.04;64.37
38880;BME280;25887;30.194;-97.880;2024-01-27T01:24:32;98560.63;;;16.05;64.24
38880;BME280;25887;30.194;-97.880;2024-01-27T01:26:59;98557.19;;;16.05;64.32
38880;BME280;25887;30.194;-97.880;2024-01-27T01:29:26;98558.94;;;16.04;64.46
38880;BME280;25887;30.194;-97.880;2024-01-27T01:31:53;98552.94;;;16.01;64.51
38880;BME280;25887;30.194;-97.880;2024-01-27T01:34:21;98546.09;;;15.98;64.41
38880;BME280;25887;30.194;-97.880;2024-01-27T01:36:48;98552.16;;;15.97;64.35
38880;BME280;25887;30.194;-97.880;2024-01-27T01:39:14;98557.38;;;15.96;64.43
38880;BME280;25887;30.194;-97.880;2024-01-27T01:41:41;98569.44;;;15.95;64.46
38880;BME280;25887;30.194;-97.880;2024-01-27T01:44:07;98571.22;;;15.93;64.62
38880;BME280;25887;30.194;-97.880;2024-01-27T01:46:34;98573.00;;;15.91;64.55
38880;BME280;25887;30.194;-97.880;2024-01-27T01:49:00;98578.25;;;15.88;64.48
38880;BME280;25887;30.194;-97.880;2024-01-27T01:51:27;98590.34;;;15.86;64.60
38880;BME280;25887;30.194;-97.880;2024-01-27T01:53:57;98601.56;;;15.86;64.71
38880;BME280;25887;30.194;-97.880;2024-01-27T01:56:25;98603.31;;;15.86;64.65
38880;BME280;25887;30.194;-97.880;2024-01-27T01:58:51;98595.53;;;15.86;64.50
38880;BME280;25887;30.194;-97.880;2024-01-27T02:01:19;98601.63;;;15.83;64.65
38880;BME280;25887;30.194;-97.880;2024-01-27T02:03:56;98613.66;;;15.87;64.65
38880;BME280;25887;30.194;-97.880;2024-01-27T02:06:23;98618.91;;;15.83;64.60
38880;BME280;25887;30.194;-97.880;2024-01-27T02:08:50;98618.97;;;15.80;64.65
38880;BME280;25887;30.194;-97.880;2024-01-27T02:11:18;98628.47;;;15.78;64.66
38880;BME280;25887;30.194;-97.880;2024-01-27T02:13:48;98638.00;;;15.77;64.67
38880;BME280;25887;30.194;-97.880;2024-01-27T02:16:14;98637.22;;;15.74;64.64
38880;BME280;25887;30.194;-97.880;2024-01-27T02:18:43;98644.97;;;15.74;64.75
38880;BME280;25887;30.194;-97.880;2024-01-27T02:21:13;98653.63;;;15.73;64.69
38880;BME280;25887;30.194;-97.880;2024-01-27T02:23:41;98651.94;;;15.70;64.86
38880;BME280;25887;30.194;-97.880;2024-01-27T02:26:07;98652.78;;;15.71;64.92
38880;BME280;25887;30.194;-97.880;2024-01-27T02:28:33;98657.97;;;15.71;64.91
38880;BME280;25887;30.194;-97.880;2024-01-27T02:31:01;98660.59;;;15.69;64.86
38880;BME280;25887;30.194;-97.880;2024-01-27T02:33:28;98660.63;;;15.66;64.91
38880;BME280;25887;30.194;-97.880;2024-01-27T02:35:57;98666.72;;;15.64;65.02
38880;BME280;25887;30.194;-97.880;2024-01-27T02:38:23;98672.78;;;15.63;65.08
38880;BME280;25887;30.194;-97.880;2024-01-27T02:40:49;98674.50;;;15.60;65.06
38880;BME280;25887;30.194;-97.880;2024-01-27T02:43:18;98681.41;;;15.62;65.15
38880;BME280;25887;30.194;-97.880;2024-01-27T02:45:45;98682.31;;;15.59;65.02
38880;BME280;25887;30.194;-97.880;2024-01-27T02:48:11;98673.69;;;15.58;65.11
38880;BME280;25887;30.194;-97.880;2024-01-27T02:50:39;98678.81;;;15.60;65.11
38880;BME280;25887;30.194;-97.880;2024-01-27T02:53:06;98668.50;;;15.58;65.23
38880;BME280;25887;30.194;-97.880;2024-01-27T02:55:32;98673.69;;;15.58;65.02
38880;BME280;25887;30.194;-97.880;2024-01-27T02:57:58;98680.59;;;15.58;65.23
38880;BME280;25887;30.194;-97.880;2024-01-27T03:00:24;98677.16;;;15.57;64.86
38880;BME280;25887;30.194;-97.880;2024-01-27T03:02:51;98670.25;;;15.56;65.32
38880;BME280;25887;30.194;-97.880;2024-01-27T03:05:19;98675.44;;;15.55;65.31
38880;BME280;25887;30.194;-97.880;2024-01-27T03:07:45;98672.91;;;15.52;65.21
38880;BME280;25887;30.194;-97.880;2024-01-27T03:10:11;98667.78;;;15.47;65.30
38880;BME280;25887;30.194;-97.880;2024-01-27T03:12:41;98671.25;;;15.46;65.37
38880;BME280;25887;30.194;-97.880;2024-01-27T03:15:08;98672.16;;;15.45;65.37
38880;BME280;25887;30.194;-97.880;2024-01-27T03:17:34;98668.69;;;15.45;65.36
38880;BME280;25887;30.194;-97.880;2024-01-27T03:20:00;98670.44;;;15.44;65.47
38880;BME280;25887;30.194;-97.880;2024-01-27T03:22:26;98686.81;;;15.45;65.46
38880;BME280;25887;30.194;-97.880;2024-01-27T03:24:53;98688.56;;;15.44;65.51
38880;BME280;25887;30.194;-97.880;2024-01-27T03:27:20;98679.06;;;15.45;65.56
38880;BME280;25887;30.194;-97.880;2024-01-27T03:29:47;98669.59;;;15.44;65.58
38880;BME280;25887;30.194;-97.880;2024-01-27T03:32:13;98679.94;;;15.44;65.43
38880;BME280;25887;30.194;-97.880;2024-01-27T03:34:46;98687.66;;;15.47;65.28
38880;BME280;25887;30.194;-97.880;2024-01-27T03:37:12;98697.19;;;15.45;65.57
38880;BME280;25887;30.194;-97.880;2024-01-27T03:39:41;98691.16;;;15.44;65.67
38880;BME280;25887;30.194;-97.880;2024-01-27T03:42:08;98695.44;;;15.45;65.74
38880;BME280;25887;30.194;-97.880;2024-01-27T03:44:35;98704.06;;;15.46;65.58
38880;BME280;25887;30.194;-97.880;2024-01-27T03:47:01;98705.81;;;15.45;65.51
38880;BME280;25887;30.194;-97.880;2024-01-27T03:49:27;98706.69;;;15.44;65.66
38880;BME280;25887;30.194;-97.880;2024-01-27T03:51:54;98702.38;;;15.43;65.69
38880;BME280;25887;30.194;-97.880;2024-01-27T03:54:20;98698.09;;;15.42;65.71
38880;BME280;25887;30.194;-97.880;2024-01-27T03:56:46;98698.09;;;15.42;65.61
38880;BME280;25887;30.194;-97.880;2024-01-27T03:59:13;98698.03;;;15.45;65.54
38880;BME280;25887;30.194;-97.880;2024-01-27T04:01:42;98681.66;;;15.45;65.72
38880;BME280;25887;30.194;-97.880;2024-01-27T04:04:08;98682.50;;;15.45;65.62
38880;BME280;25887;30.194;-97.880;2024-01-27T04:06:38;98687.69;;;15.45;65.65
38880;BME280;25887;30.194;-97.880;2024-01-27T04:09:09;98679.88;;;15.47;65.94
38880;BME280;25887;30.194;-97.880;2024-01-27T04:11:36;98679.91;;;15.45;65.74
38880;BME280;25887;30.194;-97.880;2024-01-27T04:14:03;98683.38;;;15.44;65.84
38880;BME280;25887;30.194;-97.880;2024-01-27T04:16:30;98704.09;;;15.44;65.87
38880;BME280;25887;30.194;-97.880;2024-01-27T04:18:56;98698.97;;;15.41;65.92
38880;BME280;25887;30.194;-97.880;2024-01-27T04:21:23;98697.25;;;15.39;65.79
38880;BME280;25887;30.194;-97.880;2024-01-27T04:23:49;98696.41;;;15.38;65.93
38880;BME280;25887;30.194;-97.880;2024-01-27T04:26:15;98699.88;;;15.37;65.84
38880;BME280;25887;30.194;-97.880;2024-01-27T04:28:42;98706.81;;;15.35;65.78
38880;BME280;25887;30.194;-97.880;2024-01-27T04:31:11;98724.91;;;15.37;65.78
38880;BME280;25887;30.194;-97.880;2024-01-27T04:33:37;98719.75;;;15.35;65.94
38880;BME280;25887;30.194;-97.880;2024-01-27T04:36:04;98722.34;;;15.35;65.80
38880;BME280;25887;30.194;-97.880;2024-01-27T04:38:32;98720.63;;;15.32;65.94
38880;BME280;25887;30.194;-97.880;2024-01-27T04:40:59;98731.06;;;15.28;65.97
38880;BME280;25887;30.194;-97.880;2024-01-27T04:43:25;98738.00;;;15.26;65.90
38880;BME280;25887;30.194;-97.880;2024-01-27T04:45:51;98743.22;;;15.23;65.93
38880;BME280;25887;30.194;-97.880;2024-01-27T04:48:18;98736.38;;;15.19;66.02
38880;BME280;25887;30.194;-97.880;2024-01-27T04:50:44;98724.31;;;15.18;65.99
38880;BME280;25887;30.194;-97.880;2024-01-27T04:53:10;98730.34;;;15.17;66.13
38880;BME280;25887;30.194;-97.880;2024-01-27T04:55:36;98735.53;;;15.17;65.92
38880;BME280;25887;30.194;-97.880;2024-01-27T04:58:04;98740.72;;;15.15;66.10
38880;BME280;25887;30.194;-97.880;2024-01-27T05:00:30;98729.56;;;15.12;65.99
38880;BME280;25887;30.194;-97.880;2024-01-27T05:02:56;98744.22;;;15.10;66.05
38880;BME280;25887;30.194;-97.880;2024-01-27T05:05:25;98755.47;;;15.09;66.27
38880;BME280;25887;30.194;-97.880;2024-01-27T05:07:51;98771.88;;;15.08;66.13
38880;BME280;25887;30.194;-97.880;2024-01-27T05:10:18;98777.88;;;15.10;66.41
38880;BME280;25887;30.194;-97.880;2024-01-27T05:12:44;98777.03;;;15.09;66.03
38880;BME280;25887;30.194;-97.880;2024-01-27T05:15:11;98783.09;;;15.07;66.29
38880;BME280;25887;30.194;-97.880;2024-01-27T05:17:37;98777.91;;;15.07;66.03
38880;BME280;25887;30.194;-97.880;2024-01-27T05:20:03;98784.84;;;15.04;66.16
38880;BME280;25887;30.194;-97.880;2024-01-27T05:22:30;98792.63;;;15.03;66.13
38880;BME280;25887;30.194;-97.880;2024-01-27T05:24:57;98796.97;;;14.99;66.18
38880;BME280;25887;30.194;-97.880;2024-01-27T05:27:23;98801.28;;;14.99;66.24
38880;BME280;25887;30.194;-97.880;2024-01-27T05:29:49;98791.84;;;14.96;66.34
38880;BME280;25887;30.194;-97.880;2024-01-27T05:32:19;98797.03;;;14.96;66.05
38880;BME280;25887;30.194;-97.880;2024-01-27T05:34:45;98792.72;;;14.95;66.26
38880;BME280;25887;30.194;-97.880;2024-01-27T05:37:12;98784.97;;;14.95;66.31
38880;BME280;25887;30.194;-97.880;2024-01-27T05:39:38;98784.97;;;14.95;66.17
38880;BME280;25887;30.194;-97.880;2024-01-27T05:42:05;98774.63;;;14.95;66.11
38880;BME280;25887;30.194;-97.880;2024-01-27T05:44:32;98776.31;;;14.96;66.08
38880;BME280;25887;30.194;-97.880;2024-01-27T05:46:59;98785.81;;;14.96;66.01
38880;BME280;25887;30.194;-97.880;2024-01-27T05:49:25;98784.09;;;14.95;66.11
38880;BME280;25887;30.194;-97.880;2024-01-27T05:51:51;98785.84;;;14.94;66.27
38880;BME280;25887;30.194;-97.880;2024-01-27T05:54:21;98783.25;;;14.94;66.15
38880;BME280;25887;30.194;-97.880;2024-01-27T05:56:54;98781.50;;;14.93;66.20
38880;BME280;25887;30.194;-97.880;2024-01-27T05:59:21;98785.84;;;14.91;66.20
38880;BME280;25887;30.194;-97.880;2024-01-27T06:01:51;98782.41;;;14.91;66.03
38880;BME280;25887;30.194;-97.880;2024-01-27T06:04:23;98781.56;;;14.90;66.08
38880;BME280;25887;30.194;-97.880;2024-01-27T06:06:49;98780.69;;;14.90;66.25
38880;BME280;25887;30.194;-97.880;2024-01-27T06:09:19;98774.69;;;14.88;66.21
38880;BME280;25887;30.194;-97.880;2024-01-27T06:11:59;98775.56;;;14.87;66.08
38880;BME280;25887;30.194;-97.880;2024-01-27T06:14:25;98771.28;;;14.84;65.97
38880;BME280;25887;30.194;-97.880;2024-01-27T06:17:05;98758.34;;;14.83;66.05
38880;BME280;25887;30.194;-97.880;2024-01-27T06:19:37;98767.03;;;14.80;66.23
38880;BME280;25887;30.194;-97.880;2024-01-27T06:22:04;98768.75;;;14.78;66.00
38880;BME280;25887;30.194;-97.880;2024-01-27T06:24:30;98756.72;;;14.75;66.06
38880;BME280;25887;30.194;-97.880;2024-01-27T06:26:59;98764.44;;;14.77;66.10
38880;BME280;25887;30.194;-97.880;2024-01-27T06:29:26;98773.06;;;14.79;65.98
38880;BME280;25887;30.194;-97.880;2024-01-27T06:31:55;98769.59;;;14.80;66.00
38880;BME280;25887;30.194;-97.880;2024-01-27T06:34:21;98765.25;;;14.82;66.01
38880;BME280;25887;30.194;-97.880;2024-01-27T06:36:59;98760.06;;;14.87;65.84
38880;BME280;25887;30.194;-97.880;2024-01-27T06:39:26;98765.22;;;14.87;65.90
38880;BME280;25887;30.194;-97.880;2024-01-27T06:41:52;98766.09;;;14.87;65.77
38880;BME280;25887;30.194;-97.880;2024-01-27T06:44:19;98756.59;;;14.88;65.64
38880;BME280;25887;30.194;-97.880;2024-01-27T06:46:45;98750.56;;;14.87;65.59
38880;BME280;25887;30.194;-97.880;2024-01-27T06:49:16;98766.94;;;14.88;65.59
38880;BME280;25887;30.194;-97.880;2024-01-27T06:51:43;98767.78;;;14.88;65.40
38880;BME280;25887;30.194;-97.880;2024-01-27T06:54:10;98766.94;;;14.86;65.38
38880;BME280;25887;30.194;-97.880;2024-01-27T06:56:37;98769.50;;;14.86;65.49
38880;BME280;25887;30.194;-97.880;2024-01-27T06:59:06;98773.84;;;14.86;65.37
38880;BME280;25887;30.194;-97.880;2024-01-27T07:01:32;98762.63;;;14.85;65.19
38880;BME280;25887;30.194;-97.880;2024-01-27T07:04:01;98764.34;;;14.86;65.17
38880;BME280;25887;30.194;-97.880;2024-01-27T07:06:28;98760.94;;;14.84;65.25
38880;BME280;25887;30.194;-97.880;2024-01-27T07:08:54;98754.03;;;14.83;65.09
38880;BME280;25887;30.194;-97.880;2024-01-27T07:11:24;98736.00;;;14.79;65.00
38880;BME280;25887;30.194;-97.880;2024-01-27T07:13:53;98748.06;;;14.78;65.01
38880;BME280;25887;30.194;-97.880;2024-01-27T07:16:19;98742.03;;;14.76;64.97
38880;BME280;25887;30.194;-97.880;2024-01-27T07:18:45;98744.66;;;14.74;64.83
38880;BME280;25887;30.194;-97.880;2024-01-27T07:21:17;98743.81;;;14.74;65.21
38880;BME280;25887;30.194;-97.880;2024-01-27T07:23:44;98756.78;;;14.68;65.31
38880;BME280;25887;30.194;-97.880;2024-01-27T07:26:11;98758.56;;;14.64;64.89
38880;BME280;25887;30.194;-97.880;2024-01-27T07:28:38;98763.78;;;14.60;64.80
38880;BME280;25887;30.194;-97.880;2024-01-27T07:31:05;98764.66;;;14.57;64.86
38880;BME280;25887;30.194;-97.880;2024-01-27T07:33:32;98769.03;;;14.52;64.75
38880;BME280;25887;30.194;-97.880;2024-01-27T07:35:58;98774.22;;;14.49;64.89
38880;BME280;25887;30.194;-97.880;2024-01-27T07:38:24;98766.50;;;14.47;64.83
38880;BME280;25887;30.194;-97.880;2024-01-27T07:40:56;98767.34;;;14.46;64.95
38880;BME280;25887;30.194;-97.880;2024-01-27T07:43:25;98769.06;;;14.44;65.05
38880;BME280;25887;30.194;-97.880;2024-01-27T07:45:51;98760.47;;;14.42;65.06
38880;BME280;25887;30.194;-97.880;2024-01-27T07:48:19;98775.13;;;14.42;65.29
38880;BME280;25887;30.194;-97.880;2024-01-27T07:50:45;98779.41;;;14.43;64.89
38880;BME280;25887;30.194;-97.880;2024-01-27T07:53:15;98784.59;;;14.43;65.07
38880;BME280;25887;30.194;-97.880;2024-01-27T07:55:44;98793.19;;;14.43;65.11
38880;BME280;25887;30.194;-97.880;2024-01-27T07:58:10;98788.06;;;14.40;64.85
38880;BME280;25887;30.194;-97.880;2024-01-27T08:00:36;98790.66;;;14.40;64.93
38880;BME280;25887;30.194;-97.880;2024-01-27T08:03:05;98804.41;;;14.39;65.31
38880;BME280;25887;30.194;-97.880;2024-01-27T08:05:33;98807.00;;;14.39;65.18
38880;BME280;25887;30.194;-97.880;2024-01-27T08:07:59;98809.59;;;14.39;65.13
38880;BME280;25887;30.194;-97.880;2024-01-27T08:10:26;98805.28;;;14.38;65.11
38880;BME280;25887;30.194;-97.880;2024-01-27T08:12:52;98800.16;;;14.35;65.02
38880;BME280;25887;30.194;-97.880;2024-01-27T08:15:18;98807.91;;;14.37;65.04
38880;BME280;25887;30.194;-97.880;2024-01-27T08:17:44;98812.22;;;14.36;65.20
38880;BME280;25887;30.194;-97.880;2024-01-27T08:20:11;98805.34;;;14.35;65.14
38880;BME280;25887;30.194;-97.880;2024-01-27T08:22:40;98812.22;;;14.35;65.10
38880;BME280;25887;30.194;-97.880;2024-01-27T08:25:09;98807.94;;;14.34;65.05
38880;BME280;25887;30.194;-97.880;2024-01-27T08:27:35;98810.53;;;14.32;65.13
38880;BME280;25887;30.194;-97.880;2024-01-27T08:30:01;98804.50;;;14.30;65.08
38880;BME280;25887;30.194;-97.880;2024-01-27T08:32:28;98809.66;;;14.30;65.20
38880;BME280;25887;30.194;-97.880;2024-01-27T08:34:54;98807.97;;;14.28;65.20
38880;BME280;25887;30.194;-97.880;2024-01-27T08:37:21;98824.34;;;14.27;65.31
38880;BME280;25887;30.194;-97.880;2024-01-27T08:39:47;98824.34;;;14.27;65.35
38880;BME280;25887;30.194;-97.880;2024-01-27T08:42:14;98833.84;;;14.25;65.42
38880;BME280;25887;30.194;-97.880;2024-01-27T08:44:42;98836.44;;;14.25;65.28
38880;BME280;25887;30.194;-97.880;2024-01-27T08:47:09;98846.78;;;14.25;65.59
38880;BME280;25887;30.194;-97.880;2024-01-27T08:49:36;98842.44;;;14.23;65.29
38880;BME280;25887;30.194;-97.880;2024-01-27T08:52:02;98847.63;;;14.25;65.41
38880;BME280;25887;30.194;-97.880;2024-01-27T08:54:28;98845.06;;;14.25;65.40
38880;BME280;25887;30.194;-97.880;2024-01-27T08:56:55;98847.63;;;14.25;65.55
38880;BME280;25887;30.194;-97.880;2024-01-27T08:59:21;98852.81;;;14.25;65.67
38880;BME280;25887;30.194;-97.880;2024-01-27T09:01:47;98857.97;;;14.25;65.60
38880;BME280;25887;30.194;-97.880;2024-01-27T09:04:14;98861.41;;;14.27;65.59
38880;BME280;25887;30.194;-97.880;2024-01-27T09:06:40;98861.41;;;14.27;65.60
38880;BME280;25887;30.194;-97.880;2024-01-27T09:09:06;98870.00;;;14.29;65.92
38880;BME280;25887;30.194;-97.880;2024-01-27T09:11:33;98882.06;;;14.27;65.91
38880;BME280;25887;30.194;-97.880;2024-01-27T09:14:00;98888.09;;;14.29;65.88
38880;BME280;25887;30.194;-97.880;2024-01-27T09:16:26;98882.03;;;14.30;65.68
38880;BME280;25887;30.194;-97.880;2024-01-27T09:18:53;98880.31;;;14.29;65.62
38880;BME280;25887;30.194;-97.880;2024-01-27T09:21:20;98887.22;;;14.29;65.52
38880;BME280;25887;30.194;-97.880;2024-01-27T09:23:48;98888.94;;;14.28;65.77
38880;BME280;25887;30.194;-97.880;2024-01-27T09:26:14;98901.00;;;14.29;65.90
38880;BME280;25887;30.194;-97.880;2024-01-27T09:28:44;98898.41;;;14.29;66.01
38880;BME280;25887;30.194;-97.880;2024-01-27T09:31:11;98893.25;;;14.29;65.94
38880;BME280;25887;30.194;-97.880;2024-01-27T09:33:38;98899.28;;;14.30;65.73
38880;BME280;25887;30.194;-97.880;2024-01-27T09:36:04;98901.03;;;14.28;65.68
38880;BME280;25887;30.194;-97.880;2024-01-27T09:38:33;98911.38;;;14.26;65.61
38880;BME280;25887;30.194;-97.880;2024-01-27T09:41:00;98915.69;;;14.26;65.81
38880;BME280;25887;30.194;-97.880;2024-01-27T09:43:28;98920.88;;;14.24;65.55
38880;BME280;25887;30.194;-97.880;2024-01-27T09:45:57;98928.59;;;14.22;65.54
38880;BME280;25887;30.194;-97.880;2024-01-27T09:48:24;98942.41;;;14.20;65.60
38880;BME280;25887;30.194;-97.880;2024-01-27T09:50:51;98923.47;;;14.15;65.43
38880;BME280;25887;30.194;-97.880;2024-01-27T09:53:18;98939.91;;;14.06;65.42
38880;BME280;25887;30.194;-97.880;2024-01-27T09:55:44;98937.34;;;13.99;65.39
38880;BME280;25887;30.194;-97.880;2024-01-27T09:58:11;98944.25;;;13.92;65.34
38880;BME280;25887;30.194;-97.880;2024-01-27T10:00:41;98955.47;;;13.85;65.27
38880;BME280;25887;30.194;-97.880;2024-01-27T10:03:08;98958.09;;;13.77;65.43
38880;BME280;25887;30.194;-97.880;2024-01-27T10:05:36;98951.25;;;13.70;65.45
38880;BME280;25887;30.194;-97.880;2024-01-27T10:08:06;98949.53;;;13.68;65.34
38880;BME280;25887;30.194;-97.880;2024-01-27T10:10:35;98947.84;;;13.62;65.27
38880;BME280;25887;30.194;-97.880;2024-01-27T10:13:03;98952.16;;;13.57;65.08
38880;BME280;25887;30.194;-97.880;2024-01-27T10:15:30;98943.56;;;13.50;65.25
38880;BME280;25887;30.194;-97.880;2024-01-27T10:18:06;98944.44;;;13.48;64.81
38880;BME280;25887;30.194;-97.880;2024-01-27T10:20:33;98956.50;;;13.43;64.97
38880;BME280;25887;30.194;-97.880;2024-01-27T10:23:09;98953.06;;;13.41;65.01
38880;BME280;25887;30.194;-97.880;2024-01-27T10:25:40;98954.78;;;13.38;64.88
38880;BME280;25887;30.194;-97.880;2024-01-27T10:28:07;98958.22;;;13.34;65.06
38880;BME280;25887;30.194;-97.880;2024-01-27T10:30:37;98958.25;;;13.31;64.93
38880;BME280;25887;30.194;-97.880;2024-01-27T10:33:04;98966.81;;;13.30;65.01
38880;BME280;25887;30.194;-97.880;2024-01-27T10:35:30;98980.59;;;13.28;64.52
38880;BME280;25887;30.194;-97.880;2024-01-27T10:37:56;98985.75;;;13.26;64.82
38880;BME280;25887;30.194;-97.880;2024-01-27T10:40:24;98987.50;;;13.24;64.97
38880;BME280;25887;30.194;-97.880;2024-01-27T10:43:03;98995.22;;;13.23;65.14
38880;BME280;25887;30.194;-97.880;2024-01-27T10:45:40;98998.66;;;13.22;64.61
38880;BME280;25887;30.194;-97.880;2024-01-27T10:48:09;98997.78;;;13.18;64.82
38880;BME280;25887;30.194;-97.880;2024-01-27T10:50:55;98994.34;;;13.19;64.89
38880;BME280;25887;30.194;-97.880;2024-01-27T10:53:23;99004.66;;;13.19;64.60
38880;BME280;25887;30.194;-97.880;2024-01-27T10:55:53;99007.25;;;13.19;64.65
38880;BME280;25887;30.194;-97.880;2024-01-27T10:58:23;99011.53;;;13.17;64.49
38880;BME280;25887;30.194;-97.880;2024-01-27T11:00:53;99014.97;;;13.19;64.66
38880;BME280;25887;30.194;-97.880;2024-01-27T11:03:21;99029.63;;;13.16;64.76
38880;BME280;25887;30.194;-97.880;2024-01-27T11:05:55;99029.59;;;13.17;64.54
38880;BME280;25887;30.194;-97.880;2024-01-27T11:08:24;99026.16;;;13.18;64.75
38880;BME280;25887;30.194;-97.880;2024-01-27T11:10:54;99034.75;;;13.19;64.76
38880;BME280;25887;30.194;-97.880;2024-01-27T11:13:20;99032.22;;;13.20;64.63
38880;BME280;25887;30.194;-97.880;2024-01-27T11:15:53;99034.78;;;13.22;64.76
38880;BME280;25887;30.194;-97.880;2024-01-27T11:18:20;99043.41;;;13.25;64.85
38880;BME280;25887;30.194;-97.880;2024-01-27T11:20:47;99039.09;;;13.24;64.61
38880;BME280;25887;30.194;-97.880;2024-01-27T11:23:13;99047.69;;;13.26;64.88
38880;BME280;25887;30.194;-97.880;2024-01-27T11:25:40;99044.25;;;13.27;64.84
38880;BME280;25887;30.194;-97.880;2024-01-27T11:28:16;99042.53;;;13.32;64.48
38880;BME280;25887;30.194;-97.880;2024-01-27T11:30:47;99046.84;;;13.32;64.58
38880;BME280;25887;30.194;-97.880;2024-01-27T11:33:14;99056.28;;;13.34;64.33
38880;BME280;25887;30.194;-97.880;2024-01-27T11:35:41;99052.00;;;13.35;64.75
38880;BME280;25887;30.194;-97.880;2024-01-27T11:38:10;99056.28;;;13.37;64.67
38880;BME280;25887;30.194;-97.880;2024-01-27T11:40:46;99052.00;;;13.40;64.58
38880;BME280;25887;30.194;-97.880;2024-01-27T11:43:13;99059.75;;;13.40;64.87
38880;BME280;25887;30.194;-97.880;2024-01-27T11:45:40;99058.00;;;13.42;64.77
38880;BME280;25887;30.194;-97.880;2024-01-27T11:48:06;99058.00;;;13.42;64.40
38880;BME280;25887;30.194;-97.880;2024-01-27T11:50:33;99052.84;;;13.43;64.61
38880;BME280;25887;30.194;-97.880;2024-01-27T11:52:59;99059.72;;;13.43;64.08
38880;BME280;25887;30.194;-97.880;2024-01-27T11:55:25;99059.72;;;13.43;64.37
38880;BME280;25887;30.194;-97.880;2024-01-27T11:57:51;99058.00;;;13.43;64.37
38880;BME280;25887;30.194;-97.880;2024-01-27T12:00:18;99056.28;;;13.44;64.18
38880;BME280;25887;30.194;-97.880;2024-01-27T12:02:44;99046.81;;;13.44;64.40
38880;BME280;25887;30.194;-97.880;2024-01-27T12:05:10;99061.44;;;13.44;64.25
38880;BME280;25887;30.194;-97.880;2024-01-27T12:07:37;99058.88;;;13.44;64.67
38880;BME280;25887;30.194;-97.880;2024-01-27T12:10:05;99059.72;;;13.43;64.33
38880;BME280;25887;30.194;-97.880;2024-01-27T12:12:31;99069.19;;;13.44;64.17
38880;BME280;25887;30.194;-97.880;2024-01-27T12:14:59;99064.91;;;13.43;64.08
38880;BME280;25887;30.194;-97.880;2024-01-27T12:17:28;99067.47;;;13.40;64.48
38880;BME280;25887;30.194;-97.880;2024-01-27T12:19:55;99075.22;;;13.40;64.67
38880;BME280;25887;30.194;-97.880;2024-01-27T12:22:25;99076.09;;;13.42;64.29
38880;BME280;25887;30.194;-97.880;2024-01-27T12:24:56;99080.38;;;13.40;64.49
38880;BME280;25887;30.194;-97.880;2024-01-27T12:27:22;99087.28;;;13.41;64.24
38880;BME280;25887;30.194;-97.880;2024-01-27T12:29:49;99084.69;;;13.41;64.60
38880;BME280;25887;30.194;-97.880;2024-01-27T12:32:16;99073.50;;;13.42;64.20
38880;BME280;25887;30.194;-97.880;2024-01-27T12:34:43;99076.94;;;13.44;64.12
38880;BME280;25887;30.194;-97.880;2024-01-27T12:37:11;99088.13;;;13.43;64.59
38880;BME280;25887;30.194;-97.880;2024-01-27T12:39:45;99099.31;;;13.45;64.29
38880;BME280;25887;30.194;-97.880;2024-01-27T12:42:11;99099.31;;;13.45;64.43